sensor_id;sensor_type;location;lat;lon;timestamp;temperature;humidity
1702;DHT22;848;48.354;10.064;2023-04-15T00:02:25;4.60;99.90
1702;DHT22;848;48.354;10.064;2023-04-15T00:04:54;4.50;99.90
1702;DHT22;848;48.354;10.064;2023-04-15T00:07:20;4.60;99.90
1702;DHT22;848;48.354;10.064;2023-04-15T00:09:47;4.50;99.90
1702;DHT22;848;48.354;10.064;2023-04-15T00:12:14;4.50;99.90
1702;DHT22;848;48.354;10.064;2023-04-15T00:14:41;4.50;99.90
1702;DHT22;848;48.354;10.064;2023-04-15T00:17:09;4.70;99.90
1702;DHT22;848;48.354;10.064;2023-04-15T00:19:36;4.50;99.90
1702;DHT22;848;48.354;10.064;2023-04-15T00:22:07;4.60;99.90
1702;DHT22;848;48.354;10.064;2023-04-15T00:24:34;4.50;99.90
1702;DHT22;848;48.354;10.064;2023-04-15T00:27:01;4.50;99.90
1702;DHT22;848;48.354;10.064;2023-04-15T00:29:28;4.50;99.90
1702;DHT22;848;48.354;10.064;2023-04-15T00:31:56;4.50;99.90
1702;DHT22;848;48.354;10.064;2023-04-15T00:34:23;4.60;99.90
1702;DHT22;848;48.354;10.064;2023-04-15T00:36:50;4.50;99.90
1702;DHT22;848;48.354;10.064;2023-04-15T00:39:18;4.60;99.90
1702;DHT22;848;48.354;10.064;2023-04-15T00:41:46;4.40;99.90
1702;DHT22;848;48.354;10.064;2023-04-15T00:44:13;4.40;99.90
1702;DHT22;848;48.354;10.064;2023-04-15T00:46:40;4.50;99.90
1702;DHT22;848;48.354;10.064;2023-04-15T00:49:10;4.70;99.90
1702;DHT22;848;48.354;10.064;2023-04-15T00:51:37;4.60;99.90
1702;DHT22;848;48.354;10.064;2023-04-15T00:54:05;4.50;99.90
1702;DHT22;848;48.354;10.064;2023-04-15T00:56:35;4.60;99.90
1702;DHT22;848;48.354;10.064;2023-04-15T00:59:07;4.60;99.90
1702;DHT22;848;48.354;10.064;2023-04-15T01:01:35;4.70;99.90
1702;DHT22;848;48.354;10.064;2023-04-15T01:04:02;4.90;99.90
1702;DHT22;848;48.354;10.064;2023-04-15T01:06:30;5.10;99.90
1702;DHT22;848;48.354;10.064;2023-04-15T01:08:58;5.00;99.90
1702;DHT22;848;48.354;10.064;2023-04-15T01:11:26;5.20;99.90
1702;DHT22;848;48.354;10.064;2023-04-15T01:13:57;5.10;99.90
1702;DHT22;848;48.354;10.064;2023-04-15T01:16:25;5.00;99.90
1702;DHT22;848;48.354;10.064;2023-04-15T01:18:53;5.00;99.90
1702;DHT22;848;48.354;10.064;2023-04-15T01:21:20;5.10;99.90
1702;DHT22;848;48.354;10.064;2023-04-15T01:23:48;5.00;99.90
1702;DHT22;848;48.354;10.064;2023-04-15T01:26:18;4.90;99.90
1702;DHT22;848;48.354;10.064;2023-04-15T01:28:46;4.80;99.90
1702;DHT22;848;48.354;10.064;2023-04-15T01:31:14;4.60;99.90
1702;DHT22;848;48.354;10.064;2023-04-15T01:33:41;4.50;99.90
1702;DHT22;848;48.354;10.064;2023-04-15T01:36:09;4.70;99.90
1702;DHT22;848;48.354;10.064;2023-04-15T01:38:37;4.50;99.90
1702;DHT22;848;48.354;10.064;2023-04-15T01:41:04;4.60;99.90
1702;DHT22;848;48.354;10.064;2023-04-15T01:43:34;4.50;99.90
1702;DHT22;848;48.354;10.064;2023-04-15T01:46:05;4.50;99.90
1702;DHT22;848;48.354;10.064;2023-04-15T01:48:31;4.50;99.90
1702;DHT22;848;48.354;10.064;2023-04-15T01:50:58;4.50;99.90
1702;DHT22;848;48.354;10.064;2023-04-15T01:53:25;4.50;99.90
1702;DHT22;848;48.354;10.064;2023-04-15T01:55:55;4.50;99.90
1702;DHT22;848;48.354;10.064;2023-04-15T01:58:22;4.40;99.90
1702;DHT22;848;48.354;10.064;2023-04-15T02:00:50;4.40;99.90
1702;DHT22;848;48.354;10.064;2023-04-15T02:03:17;4.50;99.90
1702;DHT22;848;48.354;10.064;2023-04-15T02:05:44;4.30;99.90
1702;DHT22;848;48.354;10.064;2023-04-15T02:08:11;4.30;99.90
1702;DHT22;848;48.354;10.064;2023-04-15T02:10:38;4.30;99.90
1702;DHT22;848;48.354;10.064;2023-04-15T02:13:05;4.30;99.90
1702;DHT22;848;48.354;10.064;2023-04-15T02:15:32;4.40;99.90
1702;DHT22;848;48.354;10.064;2023-04-15T02:18:00;4.50;99.90
1702;DHT22;848;48.354;10.064;2023-04-15T02:20:27;4.30;99.90
1702;DHT22;848;48.354;10.064;2023-04-15T02:22:55;4.50;99.90
1702;DHT22;848;48.354;10.064;2023-04-15T02:25:22;4.30;99.90
1702;DHT22;848;48.354;10.064;2023-04-15T02:27:49;4.30;99.90
1702;DHT22;848;48.354;10.064;2023-04-15T02:30:20;4.20;99.90
1702;DHT22;848;48.354;10.064;2023-04-15T02:32:48;4.10;99.90
1702;DHT22;848;48.354;10.064;2023-04-15T02:35:16;4.10;99.90
1702;DHT22;848;48.354;10.064;2023-04-15T02:37:44;4.20;99.90
1702;DHT22;848;48.354;10.064;2023-04-15T02:40:11;4.20;99.90
1702;DHT22;848;48.354;10.064;2023-04-15T02:42:38;4.10;99.90
1702;DHT22;848;48.354;10.064;2023-04-15T02:45:06;4.10;99.90
1702;DHT22;848;48.354;10.064;2023-04-15T02:47:34;4.10;99.90
1702;DHT22;848;48.354;10.064;2023-04-15T02:50:02;4.00;99.90
1702;DHT22;848;48.354;10.064;2023-04-15T02:52:30;4.00;99.90
1702;DHT22;848;48.354;10.064;2023-04-15T02:54:57;4.00;99.90
1702;DHT22;848;48.354;10.064;2023-04-15T02:57:26;4.00;99.90
1702;DHT22;848;48.354;10.064;2023-04-15T02:59:54;4.10;99.90
1702;DHT22;848;48.354;10.064;2023-04-15T03:02:21;4.00;99.90
1702;DHT22;848;48.354;10.064;2023-04-15T03:04:47;4.20;99.90
1702;DHT22;848;48.354;10.064;2023-04-15T03:07:16;4.00;99.90
1702;DHT22;848;48.354;10.064;2023-04-15T03:09:44;4.00;99.90
1702;DHT22;848;48.354;10.064;2023-04-15T03:12:12;4.00;99.90
1702;DHT22;848;48.354;10.064;2023-04-15T03:14:39;4.00;99.90
1702;DHT22;848;48.354;10.064;2023-04-15T03:17:06;3.90;99.90
1702;DHT22;848;48.354;10.064;2023-04-15T03:19:33;3.90;99.90
1702;DHT22;848;48.354;10.064;2023-04-15T03:22:00;3.90;99.90
1702;DHT22;848;48.354;10.064;2023-04-15T03:24:27;3.90;99.90
1702;DHT22;848;48.354;10.064;2023-04-15T03:26:56;3.80;99.90
1702;DHT22;848;48.354;10.064;2023-04-15T03:29:23;3.80;99.90
1702;DHT22;848;48.354;10.064;2023-04-15T03:31:51;3.80;99.90
1702;DHT22;848;48.354;10.064;2023-04-15T03:34:18;3.80;99.90
1702;DHT22;848;48.354;10.064;2023-04-15T03:36:45;3.90;99.90
1702;DHT22;848;48.354;10.064;2023-04-15T03:39:12;4.00;99.90
1702;DHT22;848;48.354;10.064;2023-04-15T03:41:39;4.20;99.90
1702;DHT22;848;48.354;10.064;2023-04-15T03:44:07;4.10;99.90
1702;DHT22;848;48.354;10.064;2023-04-15T03:46:34;4.20;99.90
1702;DHT22;848;48.354;10.064;2023-04-15T03:49:01;4.20;99.90
1702;DHT22;848;48.354;10.064;2023-04-15T03:51:28;4.20;99.90
1702;DHT22;848;48.354;10.064;2023-04-15T03:53:55;4.30;99.90
1702;DHT22;848;48.354;10.064;2023-04-15T03:56:23;4.30;99.90
1702;DHT22;848;48.354;10.064;2023-04-15T03:58:50;4.30;99.90
1702;DHT22;848;48.354;10.064;2023-04-15T04:01:18;4.40;99.90
1702;DHT22;848;48.354;10.064;2023-04-15T04:03:45;4.30;99.90
1702;DHT22;848;48.354;10.064;2023-04-15T04:06:12;4.40;99.90
1702;DHT22;848;48.354;10.064;2023-04-15T04:08:39;4.10;99.90
1702;DHT22;848;48.354;10.064;2023-04-15T04:11:06;4.00;99.90
1702;DHT22;848;48.354;10.064;2023-04-15T04:13:32;3.90;99.90
1702;DHT22;848;48.354;10.064;2023-04-15T04:15:59;3.90;99.90
1702;DHT22;848;48.354;10.064;2023-04-15T04:18:28;3.90;99.90
1702;DHT22;848;48.354;10.064;2023-04-15T04:20:55;3.90;99.90
1702;DHT22;848;48.354;10.064;2023-04-15T04:23:22;4.20;99.90
1702;DHT22;848;48.354;10.064;2023-04-15T04:25:49;4.10;99.90
1702;DHT22;848;48.354;10.064;2023-04-15T04:28:17;4.00;99.90
1702;DHT22;848;48.354;10.064;2023-04-15T04:30:44;4.00;99.90
1702;DHT22;848;48.354;10.064;2023-04-15T04:33:11;3.90;99.90
1702;DHT22;848;48.354;10.064;2023-04-15T04:35:39;3.90;99.90
1702;DHT22;848;48.354;10.064;2023-04-15T04:38:09;4.10;99.90
1702;DHT22;848;48.354;10.064;2023-04-15T04:40:40;3.80;99.90
1702;DHT22;848;48.354;10.064;2023-04-15T04:43:07;3.80;99.90
1702;DHT22;848;48.354;10.064;2023-04-15T04:45:33;3.90;99.90
1702;DHT22;848;48.354;10.064;2023-04-15T04:48:00;4.00;99.90
1702;DHT22;848;48.354;10.064;2023-04-15T04:50:31;4.00;99.90
1702;DHT22;848;48.354;10.064;2023-04-15T04:53:00;4.10;99.90
1702;DHT22;848;48.354;10.064;2023-04-15T04:55:27;4.20;99.90
1702;DHT22;848;48.354;10.064;2023-04-15T04:57:54;4.30;99.90
1702;DHT22;848;48.354;10.064;2023-04-15T05:00:21;4.40;99.90
1702;DHT22;848;48.354;10.064;2023-04-15T05:02:49;4.50;99.90
1702;DHT22;848;48.354;10.064;2023-04-15T05:05:16;4.60;99.90
1702;DHT22;848;48.354;10.064;2023-04-15T05:07:43;4.60;99.90
1702;DHT22;848;48.354;10.064;2023-04-15T05:10:11;4.60;99.90
1702;DHT22;848;48.354;10.064;2023-04-15T05:12:39;4.60;99.90
1702;DHT22;848;48.354;10.064;2023-04-15T05:15:07;4.60;99.90
1702;DHT22;848;48.354;10.064;2023-04-15T05:17:34;4.70;99.90
1702;DHT22;848;48.354;10.064;2023-04-15T05:20:01;4.90;99.90
1702;DHT22;848;48.354;10.064;2023-04-15T05:22:28;4.90;99.90
1702;DHT22;848;48.354;10.064;2023-04-15T05:24:55;4.80;99.90
1702;DHT22;848;48.354;10.064;2023-04-15T05:27:23;4.90;99.90
1702;DHT22;848;48.354;10.064;2023-04-15T05:29:50;5.00;99.90
1702;DHT22;848;48.354;10.064;2023-04-15T05:32:17;5.00;99.90
1702;DHT22;848;48.354;10.064;2023-04-15T05:34:45;5.10;99.90
1702;DHT22;848;48.354;10.064;2023-04-15T05:37:12;5.30;99.90
1702;DHT22;848;48.354;10.064;2023-04-15T05:39:39;5.10;99.90
1702;DHT22;848;48.354;10.064;2023-04-15T05:42:09;5.20;99.90
1702;DHT22;848;48.354;10.064;2023-04-15T05:44:38;5.30;99.90
1702;DHT22;848;48.354;10.064;2023-04-15T05:47:04;5.40;99.90
1702;DHT22;848;48.354;10.064;2023-04-15T05:49:32;5.50;99.90
1702;DHT22;848;48.354;10.064;2023-04-15T05:51:59;5.60;99.90
1702;DHT22;848;48.354;10.064;2023-04-15T05:54:26;5.70;99.90
1702;DHT22;848;48.354;10.064;2023-04-15T05:56:56;5.60;99.90
1702;DHT22;848;48.354;10.064;2023-04-15T05:59:27;5.50;99.90
1702;DHT22;848;48.354;10.064;2023-04-15T06:01:55;5.60;99.90
1702;DHT22;848;48.354;10.064;2023-04-15T06:04:22;5.80;99.90
1702;DHT22;848;48.354;10.064;2023-04-15T06:06:49;5.70;99.90
1702;DHT22;848;48.354;10.064;2023-04-15T06:09:16;5.80;99.90
1702;DHT22;848;48.354;10.064;2023-04-15T06:11:43;5.80;99.90
1702;DHT22;848;48.354;10.064;2023-04-15T06:14:10;5.90;99.90
1702;DHT22;848;48.354;10.064;2023-04-15T06:16:37;5.80;99.90
1702;DHT22;848;48.354;10.064;2023-04-15T06:19:06;5.70;99.90
1702;DHT22;848;48.354;10.064;2023-04-15T06:21:32;5.80;99.90
1702;DHT22;848;48.354;10.064;2023-04-15T06:23:59;5.80;99.90
1702;DHT22;848;48.354;10.064;2023-04-15T06:26:27;5.80;99.90
1702;DHT22;848;48.354;10.064;2023-04-15T06:28:54;5.80;99.90
1702;DHT22;848;48.354;10.064;2023-04-15T06:31:21;5.90;99.90
1702;DHT22;848;48.354;10.064;2023-04-15T06:33:48;5.90;99.90
1702;DHT22;848;48.354;10.064;2023-04-15T06:36:16;6.00;99.90
1702;DHT22;848;48.354;10.064;2023-04-15T06:38:43;6.00;99.90
1702;DHT22;848;48.354;10.064;2023-04-15T06:41:10;6.00;99.90
1702;DHT22;848;48.354;10.064;2023-04-15T06:43:38;6.00;99.90
1702;DHT22;848;48.354;10.064;2023-04-15T06:46:05;6.10;99.90
1702;DHT22;848;48.354;10.064;2023-04-15T06:48:31;6.10;99.90
1702;DHT22;848;48.354;10.064;2023-04-15T06:50:58;6.20;99.90
1702;DHT22;848;48.354;10.064;2023-04-15T06:53:27;6.30;99.90
1702;DHT22;848;48.354;10.064;2023-04-15T06:55:54;6.40;99.90
1702;DHT22;848;48.354;10.064;2023-04-15T06:58:21;6.80;99.90
1702;DHT22;848;48.354;10.064;2023-04-15T07:00:48;6.90;99.90
1702;DHT22;848;48.354;10.064;2023-04-15T07:03:15;7.20;99.90
1702;DHT22;848;48.354;10.064;2023-04-15T07:05:42;7.60;99.90
1702;DHT22;848;48.354;10.064;2023-04-15T07:08:09;7.90;99.90
1702;DHT22;848;48.354;10.064;2023-04-15T07:10:38;7.90;99.90
1702;DHT22;848;48.354;10.064;2023-04-15T07:13:06;8.30;99.90
1702;DHT22;848;48.354;10.064;2023-04-15T07:15:33;8.30;99.90
1702;DHT22;848;48.354;10.064;2023-04-15T07:18:00;8.50;99.90
1702;DHT22;848;48.354;10.064;2023-04-15T07:20:27;8.70;99.90
1702;DHT22;848;48.354;10.064;2023-04-15T07:22:54;8.60;99.90
1702;DHT22;848;48.354;10.064;2023-04-15T07:25:21;8.50;99.90
1702;DHT22;848;48.354;10.064;2023-04-15T07:27:49;8.70;99.90
1702;DHT22;848;48.354;10.064;2023-04-15T07:30:20;8.90;99.90
1702;DHT22;848;48.354;10.064;2023-04-15T07:32:47;8.90;99.90
1702;DHT22;848;48.354;10.064;2023-04-15T07:35:14;8.90;99.90
1702;DHT22;848;48.354;10.064;2023-04-15T07:37:41;8.90;99.90
1702;DHT22;848;48.354;10.064;2023-04-15T07:40:09;8.70;99.90
1702;DHT22;848;48.354;10.064;2023-04-15T07:42:40;8.70;99.90
1702;DHT22;848;48.354;10.064;2023-04-15T07:45:10;8.60;99.90
1702;DHT22;848;48.354;10.064;2023-04-15T07:47:37;8.50;99.90
1702;DHT22;848;48.354;10.064;2023-04-15T07:50:05;8.60;99.90
1702;DHT22;848;48.354;10.064;2023-04-15T07:52:33;8.70;99.90
1702;DHT22;848;48.354;10.064;2023-04-15T07:55:04;8.90;99.90
1702;DHT22;848;48.354;10.064;2023-04-15T07:57:31;8.90;99.90
1702;DHT22;848;48.354;10.064;2023-04-15T07:59:59;9.10;99.90
1702;DHT22;848;48.354;10.064;2023-04-15T08:02:28;9.40;99.90
1702;DHT22;848;48.354;10.064;2023-04-15T08:04:57;9.70;99.90
1702;DHT22;848;48.354;10.064;2023-04-15T08:07:25;9.90;99.90
1702;DHT22;848;48.354;10.064;2023-04-15T08:09:52;9.90;99.90
1702;DHT22;848;48.354;10.064;2023-04-15T08:12:19;9.90;99.90
1702;DHT22;848;48.354;10.064;2023-04-15T08:14:46;10.10;99.90
1702;DHT22;848;48.354;10.064;2023-04-15T08:17:13;10.10;99.90
1702;DHT22;848;48.354;10.064;2023-04-15T08:19:41;10.00;99.90
1702;DHT22;848;48.354;10.064;2023-04-15T08:22:09;10.00;99.90
1702;DHT22;848;48.354;10.064;2023-04-15T08:24:37;10.10;99.90
1702;DHT22;848;48.354;10.064;2023-04-15T08:27:04;10.40;99.90
1702;DHT22;848;48.354;10.064;2023-04-15T08:29:32;10.70;99.90
1702;DHT22;848;48.354;10.064;2023-04-15T08:32:00;11.00;99.90
1702;DHT22;848;48.354;10.064;2023-04-15T08:34:27;11.20;99.90
1702;DHT22;848;48.354;10.064;2023-04-15T08:36:55;11.20;99.90
1702;DHT22;848;48.354;10.064;2023-04-15T08:39:22;11.20;99.90
1702;DHT22;848;48.354;10.064;2023-04-15T08:41:51;11.10;99.90
1702;DHT22;848;48.354;10.064;2023-04-15T08:44:22;11.10;99.90
1702;DHT22;848;48.354;10.064;2023-04-15T08:46:51;11.30;99.90
1702;DHT22;848;48.354;10.064;2023-04-15T08:49:20;11.50;99.90
1702;DHT22;848;48.354;10.064;2023-04-15T08:51:48;11.70;99.90
1702;DHT22;848;48.354;10.064;2023-04-15T08:54:19;11.60;99.90
1702;DHT22;848;48.354;10.064;2023-04-15T08:56:47;11.60;99.90
1702;DHT22;848;48.354;10.064;2023-04-15T08:59:14;11.60;99.90
1702;DHT22;848;48.354;10.064;2023-04-15T09:01:42;11.50;99.90
1702;DHT22;848;48.354;10.064;2023-04-15T09:04:10;11.70;99.90
1702;DHT22;848;48.354;10.064;2023-04-15T09:06:39;11.80;99.90
1702;DHT22;848;48.354;10.064;2023-04-15T09:09:06;12.00;99.90
1702;DHT22;848;48.354;10.064;2023-04-15T09:11:35;12.10;99.90
1702;DHT22;848;48.354;10.064;2023-04-15T09:14:01;12.30;99.90
1702;DHT22;848;48.354;10.064;2023-04-15T09:16:29;12.20;99.90
1702;DHT22;848;48.354;10.064;2023-04-15T09:18:57;12.30;99.90
1702;DHT22;848;48.354;10.064;2023-04-15T09:21:24;12.20;99.90
1702;DHT22;848;48.354;10.064;2023-04-15T09:23:56;12.30;99.90
1702;DHT22;848;48.354;10.064;2023-04-15T09:26:35;12.30;99.90
1702;DHT22;848;48.354;10.064;2023-04-15T09:29:06;12.50;99.90
1702;DHT22;848;48.354;10.064;2023-04-15T09:31:36;12.40;99.90
1702;DHT22;848;48.354;10.064;2023-04-15T09:34:03;12.50;99.90
1702;DHT22;848;48.354;10.064;2023-04-15T09:36:37;12.50;99.90
1702;DHT22;848;48.354;10.064;2023-04-15T09:39:17;12.60;99.90
1702;DHT22;848;48.354;10.064;2023-04-15T09:41:45;12.60;99.90
1702;DHT22;848;48.354;10.064;2023-04-15T09:44:21;12.70;99.90
1702;DHT22;848;48.354;10.064;2023-04-15T09:46:49;12.90;99.90
1702;DHT22;848;48.354;10.064;2023-04-15T09:49:16;13.00;99.90
1702;DHT22;848;48.354;10.064;2023-04-15T09:51:44;13.10;99.90
1702;DHT22;848;48.354;10.064;2023-04-15T09:54:11;12.90;99.90
1702;DHT22;848;48.354;10.064;2023-04-15T09:56:39;12.60;99.90
1702;DHT22;848;48.354;10.064;2023-04-15T09:59:08;12.40;99.90
1702;DHT22;848;48.354;10.064;2023-04-15T10:01:35;12.30;99.90
1702;DHT22;848;48.354;10.064;2023-04-15T10:04:03;12.30;99.90
1702;DHT22;848;48.354;10.064;2023-04-15T10:06:30;12.30;99.90
1702;DHT22;848;48.354;10.064;2023-04-15T10:08:57;12.30;99.90
1702;DHT22;848;48.354;10.064;2023-04-15T10:11:27;12.30;99.90
1702;DHT22;848;48.354;10.064;2023-04-15T10:13:55;12.20;99.90
1702;DHT22;848;48.354;10.064;2023-04-15T10:16:26;12.10;99.90
1702;DHT22;848;48.354;10.064;2023-04-15T10:18:55;12.00;99.90
1702;DHT22;848;48.354;10.064;2023-04-15T10:21:23;12.00;99.90
1702;DHT22;848;48.354;10.064;2023-04-15T10:23:50;12.00;99.90
1702;DHT22;848;48.354;10.064;2023-04-15T10:26:17;12.00;99.90
1702;DHT22;848;48.354;10.064;2023-04-15T10:28:44;12.00;99.90
1702;DHT22;848;48.354;10.064;2023-04-15T10:31:13;12.00;99.90
1702;DHT22;848;48.354;10.064;2023-04-15T10:33:42;12.10;99.90
1702;DHT22;848;48.354;10.064;2023-04-15T10:36:10;12.20;99.90
1702;DHT22;848;48.354;10.064;2023-04-15T10:38:39;12.00;99.90
1702;DHT22;848;48.354;10.064;2023-04-15T10:41:14;12.00;99.90
1702;DHT22;848;48.354;10.064;2023-04-15T10:43:46;12.20;99.90
1702;DHT22;848;48.354;10.064;2023-04-15T10:46:17;12.20;99.90
1702;DHT22;848;48.354;10.064;2023-04-15T10:48:49;12.10;99.90
1702;DHT22;848;48.354;10.064;2023-04-15T10:51:26;12.10;99.90
1702;DHT22;848;48.354;10.064;2023-04-15T10:53:56;11.90;99.90
1702;DHT22;848;48.354;10.064;2023-04-15T10:56:30;12.00;99.90
1702;DHT22;848;48.354;10.064;2023-04-15T10:59:00;12.20;99.90
1702;DHT22;848;48.354;10.064;2023-04-15T11:01:54;12.30;99.90
1702;DHT22;848;48.354;10.064;2023-04-15T11:04:54;12.40;99.90
1702;DHT22;848;48.354;10.064;2023-04-15T11:07:38;12.40;99.90
1702;DHT22;848;48.354;10.064;2023-04-15T11:13:19;12.60;99.90
1702;DHT22;848;48.354;10.064;2023-04-15T11:15:55;12.70;99.90
1702;DHT22;848;48.354;10.064;2023-04-15T11:18:24;12.60;99.90
1702;DHT22;848;48.354;10.064;2023-04-15T11:20:55;12.50;99.90
1702;DHT22;848;48.354;10.064;2023-04-15T11:23:32;12.50;99.90
1702;DHT22;848;48.354;10.064;2023-04-15T11:26:00;12.60;99.90
1702;DHT22;848;48.354;10.064;2023-04-15T11:28:30;12.30;99.90
1702;DHT22;848;48.354;10.064;2023-04-15T11:31:05;12.30;99.90
1702;DHT22;848;48.354;10.064;2023-04-15T11:33:33;12.30;99.90
1702;DHT22;848;48.354;10.064;2023-04-15T11:36:02;12.50;99.90
1702;DHT22;848;48.354;10.064;2023-04-15T11:38:29;12.50;99.90
1702;DHT22;848;48.354;10.064;2023-04-15T11:40:57;12.40;99.90
1702;DHT22;848;48.354;10.064;2023-04-15T11:43:24;12.30;99.90
1702;DHT22;848;48.354;10.064;2023-04-15T11:45:52;12.40;99.90
1702;DHT22;848;48.354;10.064;2023-04-15T11:48:21;12.50;99.90
1702;DHT22;848;48.354;10.064;2023-04-15T11:50:52;12.40;99.90
1702;DHT22;848;48.354;10.064;2023-04-15T11:53:21;12.50;99.90
1702;DHT22;848;48.354;10.064;2023-04-15T11:55:50;12.30;99.90
1702;DHT22;848;48.354;10.064;2023-04-15T11:58:19;12.30;99.90
1702;DHT22;848;48.354;10.064;2023-04-15T12:00:47;12.20;99.90
1702;DHT22;848;48.354;10.064;2023-04-15T12:03:20;12.10;99.90
1702;DHT22;848;48.354;10.064;2023-04-15T12:06:10;11.90;99.90
1702;DHT22;848;48.354;10.064;2023-04-15T12:08:56;11.80;99.90
1702;DHT22;848;48.354;10.064;2023-04-15T12:11:29;11.60;99.90
1702;DHT22;848;48.354;10.064;2023-04-15T12:13:58;11.50;99.90
1702;DHT22;848;48.354;10.064;2023-04-15T12:16:27;11.30;99.90
1702;DHT22;848;48.354;10.064;2023-04-15T12:18:55;11.30;99.90
1702;DHT22;848;48.354;10.064;2023-04-15T12:21:25;11.30;99.90
1702;DHT22;848;48.354;10.064;2023-04-15T12:23:56;11.40;99.90
1702;DHT22;848;48.354;10.064;2023-04-15T12:26:27;11.60;99.90
1702;DHT22;848;48.354;10.064;2023-04-15T12:28:55;11.70;99.90
1702;DHT22;848;48.354;10.064;2023-04-15T12:31:22;11.70;99.90
1702;DHT22;848;48.354;10.064;2023-04-15T12:33:49;11.60;99.90
1702;DHT22;848;48.354;10.064;2023-04-15T12:36:17;11.40;99.90
1702;DHT22;848;48.354;10.064;2023-04-15T12:38:44;11.50;99.90
1702;DHT22;848;48.354;10.064;2023-04-15T12:41:13;11.40;99.90
1702;DHT22;848;48.354;10.064;2023-04-15T12:43:40;11.20;99.90
1702;DHT22;848;48.354;10.064;2023-04-15T12:46:07;11.20;99.90
1702;DHT22;848;48.354;10.064;2023-04-15T12:48:35;11.20;99.90
1702;DHT22;848;48.354;10.064;2023-04-15T12:51:02;11.20;99.90
1702;DHT22;848;48.354;10.064;2023-04-15T12:53:29;11.30;99.90
1702;DHT22;848;48.354;10.064;2023-04-15T12:55:57;11.50;99.90
1702;DHT22;848;48.354;10.064;2023-04-15T12:58:25;11.30;99.90
1702;DHT22;848;48.354;10.064;2023-04-15T13:00:53;11.20;99.90
1702;DHT22;848;48.354;10.064;2023-04-15T13:03:19;11.10;99.90
1702;DHT22;848;48.354;10.064;2023-04-15T13:05:46;11.10;99.90
1702;DHT22;848;48.354;10.064;2023-04-15T13:08:13;11.10;99.90
1702;DHT22;848;48.354;10.064;2023-04-15T13:10:42;11.10;99.90
1702;DHT22;848;48.354;10.064;2023-04-15T13:13:09;11.10;99.90
1702;DHT22;848;48.354;10.064;2023-04-15T13:15:40;11.10;99.90
1702;DHT22;848;48.354;10.064;2023-04-15T13:18:10;11.20;99.90
1702;DHT22;848;48.354;10.064;2023-04-15T13:20:37;11.30;99.90
1702;DHT22;848;48.354;10.064;2023-04-15T13:23:06;11.30;99.90
1702;DHT22;848;48.354;10.064;2023-04-15T13:25:36;11.50;99.90
1702;DHT22;848;48.354;10.064;2023-04-15T13:28:03;11.50;99.90
1702;DHT22;848;48.354;10.064;2023-04-15T13:30:30;11.60;99.90
1702;DHT22;848;48.354;10.064;2023-04-15T13:32:58;11.50;99.90
1702;DHT22;848;48.354;10.064;2023-04-15T13:35:25;11.50;99.90
1702;DHT22;848;48.354;10.064;2023-04-15T13:37:53;11.50;99.90
1702;DHT22;848;48.354;10.064;2023-04-15T13:40:20;11.50;99.90
1702;DHT22;848;48.354;10.064;2023-04-15T13:42:50;11.60;99.90
1702;DHT22;848;48.354;10.064;2023-04-15T13:45:18;11.60;99.90
1702;DHT22;848;48.354;10.064;2023-04-15T13:47:45;11.60;99.90
1702;DHT22;848;48.354;10.064;2023-04-15T13:50:13;11.50;99.90
1702;DHT22;848;48.354;10.064;2023-04-15T13:52:40;11.40;99.90
1702;DHT22;848;48.354;10.064;2023-04-15T13:55:11;11.30;99.90
1702;DHT22;848;48.354;10.064;2023-04-15T13:57:38;11.10;99.90
1702;DHT22;848;48.354;10.064;2023-04-15T14:00:06;11.00;99.90
1702;DHT22;848;48.354;10.064;2023-04-15T14:02:34;10.80;99.90
1702;DHT22;848;48.354;10.064;2023-04-15T14:05:01;10.50;99.90
1702;DHT22;848;48.354;10.064;2023-04-15T14:07:32;10.30;99.90
1702;DHT22;848;48.354;10.064;2023-04-15T14:09:59;10.20;99.90
1702;DHT22;848;48.354;10.064;2023-04-15T14:12:26;10.00;99.90
1702;DHT22;848;48.354;10.064;2023-04-15T14:14:53;9.90;99.90
1702;DHT22;848;48.354;10.064;2023-04-15T14:17:20;10.00;99.90
1702;DHT22;848;48.354;10.064;2023-04-15T14:19:47;10.00;99.90
1702;DHT22;848;48.354;10.064;2023-04-15T14:22:14;9.80;99.90
1702;DHT22;848;48.354;10.064;2023-04-15T14:24:44;9.60;99.90
1702;DHT22;848;48.354;10.064;2023-04-15T14:27:13;9.50;99.90
1702;DHT22;848;48.354;10.064;2023-04-15T14:29:41;9.50;99.90
1702;DHT22;848;48.354;10.064;2023-04-15T14:32:07;9.40;99.90
1702;DHT22;848;48.354;10.064;2023-04-15T14:34:35;9.30;99.90
1702;DHT22;848;48.354;10.064;2023-04-15T14:37:02;9.10;99.90
1702;DHT22;848;48.354;10.064;2023-04-15T14:39:30;8.90;99.90
1702;DHT22;848;48.354;10.064;2023-04-15T14:41:59;8.80;99.90
1702;DHT22;848;48.354;10.064;2023-04-15T14:44:26;8.80;99.90
1702;DHT22;848;48.354;10.064;2023-04-15T14:46:53;8.70;99.90
1702;DHT22;848;48.354;10.064;2023-04-15T14:49:20;8.70;99.90
1702;DHT22;848;48.354;10.064;2023-04-15T14:51:47;8.60;99.90
1702;DHT22;848;48.354;10.064;2023-04-15T14:54:14;8.60;99.90
1702;DHT22;848;48.354;10.064;2023-04-15T14:56:41;8.60;99.90
1702;DHT22;848;48.354;10.064;2023-04-15T14:59:09;8.60;99.90
1702;DHT22;848;48.354;10.064;2023-04-15T15:01:36;8.60;99.90
1702;DHT22;848;48.354;10.064;2023-04-15T15:04:03;8.50;99.90
1702;DHT22;848;48.354;10.064;2023-04-15T15:06:30;8.60;99.90
1702;DHT22;848;48.354;10.064;2023-04-15T15:08:57;8.60;99.90
1702;DHT22;848;48.354;10.064;2023-04-15T15:11:24;8.60;99.90
1702;DHT22;848;48.354;10.064;2023-04-15T15:13:51;8.70;99.90
1702;DHT22;848;48.354;10.064;2023-04-15T15:16:20;8.80;99.90
1702;DHT22;848;48.354;10.064;2023-04-15T15:18:46;8.90;99.90
1702;DHT22;848;48.354;10.064;2023-04-15T15:21:13;8.90;99.90
1702;DHT22;848;48.354;10.064;2023-04-15T15:23:40;8.90;99.90
1702;DHT22;848;48.354;10.064;2023-04-15T15:26:07;9.00;99.90
1702;DHT22;848;48.354;10.064;2023-04-15T15:28:37;9.10;99.90
1702;DHT22;848;48.354;10.064;2023-04-15T15:31:04;9.20;99.90
1702;DHT22;848;48.354;10.064;2023-04-15T15:33:32;9.30;99.90
1702;DHT22;848;48.354;10.064;2023-04-15T15:35:59;9.30;99.90
1702;DHT22;848;48.354;10.064;2023-04-15T15:38:27;9.30;99.90
1702;DHT22;848;48.354;10.064;2023-04-15T15:40:54;9.20;99.90
1702;DHT22;848;48.354;10.064;2023-04-15T15:43:23;9.40;99.90
1702;DHT22;848;48.354;10.064;2023-04-15T15:45:50;9.40;99.90
1702;DHT22;848;48.354;10.064;2023-04-15T15:48:19;9.40;99.90
1702;DHT22;848;48.354;10.064;2023-04-15T15:50:48;9.50;99.90
1702;DHT22;848;48.354;10.064;2023-04-15T15:53:15;9.50;99.90
1702;DHT22;848;48.354;10.064;2023-04-15T15:55:45;9.60;99.90
1702;DHT22;848;48.354;10.064;2023-04-15T15:58:12;9.60;99.90
1702;DHT22;848;48.354;10.064;2023-04-15T16:00:40;9.60;99.90
1702;DHT22;848;48.354;10.064;2023-04-15T16:03:07;9.60;99.90
1702;DHT22;848;48.354;10.064;2023-04-15T16:05:34;9.60;99.90
1702;DHT22;848;48.354;10.064;2023-04-15T16:08:02;9.60;99.90
1702;DHT22;848;48.354;10.064;2023-04-15T16:10:29;9.60;99.90
1702;DHT22;848;48.354;10.064;2023-04-15T16:12:56;9.60;99.90
1702;DHT22;848;48.354;10.064;2023-04-15T16:15:24;9.60;99.90
1702;DHT22;848;48.354;10.064;2023-04-15T16:17:51;9.60;99.90
1702;DHT22;848;48.354;10.064;2023-04-15T16:20:18;9.60;99.90
1702;DHT22;848;48.354;10.064;2023-04-15T16:22:45;9.60;99.90